createdAt,value
2023-01-06T00:01:20.145Z,0.53
2023-01-06T00:03:50.557Z,1.90
2023-01-06T00:06:19.567Z,2.03
2023-01-06T00:08:49.231Z,0.90
2023-01-06T00:11:18.741Z,3.23
2023-01-06T00:13:47.127Z,1.40
2023-01-06T00:16:17.048Z,3.83
2023-01-06T00:18:45.663Z,2.80
2023-01-06T00:21:15.665Z,3.47
2023-01-06T00:23:44.216Z,2.33
2023-01-06T00:26:14.095Z,2.80
2023-01-06T00:28:42.453Z,2.07
2023-01-06T00:31:12.637Z,1.83
2023-01-06T00:33:40.993Z,1.93
2023-01-06T00:36:10.700Z,1.07
2023-01-06T00:38:39.699Z,0.77
2023-01-06T00:41:29.479Z,0.93
2023-01-06T00:44:00.153Z,0.53
2023-01-06T00:46:29.966Z,0.73
2023-01-06T00:49:07.331Z,1.07
2023-01-06T00:51:37.247Z,1.33
2023-01-06T00:54:06.082Z,1.50
2023-01-06T00:56:36.690Z,0.40
2023-01-06T00:59:07.146Z,0.73
2023-01-06T01:01:36.143Z,1.80
2023-01-06T01:04:04.879Z,2.93
2023-01-06T01:06:33.850Z,0.70
2023-01-06T01:09:02.684Z,1.50
2023-01-06T01:11:48.592Z,1.13
2023-01-06T01:14:19.836Z,2.17
2023-01-06T01:16:48.720Z,4.03
2023-01-06T01:19:17.212Z,2.00
2023-01-06T01:21:45.524Z,1.37
2023-01-06T01:24:13.825Z,2.53
2023-01-06T01:26:42.298Z,1.17
2023-01-06T01:29:13.130Z,2.30
2023-01-06T01:31:43.103Z,1.37
2023-01-06T01:34:12.998Z,1.97
2023-01-06T01:36:42.053Z,3.40
2023-01-06T01:39:11.984Z,0.90
2023-01-06T01:41:40.389Z,2.07
2023-01-06T01:44:41.737Z,2.00
2023-01-06T01:47:13.222Z,2.53
2023-01-06T01:49:43.715Z,2.27
2023-01-06T01:52:13.198Z,2.00
2023-01-06T01:54:42.432Z,1.43
2023-01-06T01:57:14.398Z,0.80
2023-01-06T01:59:44.425Z,1.10
2023-01-06T02:02:16.107Z,2.50
2023-01-06T02:04:50.390Z,2.73
2023-01-06T02:07:19.361Z,2.30
2023-01-06T02:09:57.421Z,3.00
2023-01-06T02:12:25.696Z,1.20
2023-01-06T02:14:53.991Z,1.77
2023-01-06T02:17:48.446Z,1.13
2023-01-06T02:20:38.165Z,0.80
2023-01-06T02:23:52.712Z,1.00
2023-01-06T02:27:02.537Z,1.30
2023-01-06T02:30:12.355Z,1.33
2023-01-06T02:32:52.529Z,0.70
2023-01-06T02:35:39.888Z,0.47
2023-01-06T02:38:18.600Z,0.67
2023-01-06T02:41:02.243Z,0.40
2023-01-06T02:43:39.950Z,1.00
2023-01-06T02:46:14.569Z,1.60
2023-01-06T02:48:57.279Z,0.93
2023-01-06T02:51:33.369Z,1.13
2023-01-06T02:54:10.202Z,0.70
2023-01-06T02:56:43.956Z,1.77
2023-01-06T02:59:19.262Z,1.53
2023-01-06T03:01:49.608Z,0.60
2023-01-06T03:04:25.078Z,1.13
2023-01-06T03:06:56.236Z,1.17
2023-01-06T03:09:29.352Z,0.40
2023-01-06T03:11:57.629Z,2.30
2023-01-06T03:14:32.053Z,1.07
2023-01-06T03:17:00.882Z,0.57
2023-01-06T03:19:30.812Z,2.27
2023-01-06T03:21:59.965Z,1.40
2023-01-06T03:24:28.556Z,0.40
2023-01-06T03:26:57.033Z,1.47
2023-01-06T03:29:26.134Z,0.83
2023-01-06T03:32:03.034Z,0.90
2023-01-06T03:34:51.866Z,1.03
2023-01-06T03:37:27.631Z,0.53
2023-01-06T03:40:02.199Z,0.50
2023-01-06T03:42:54.885Z,0.60
2023-01-06T03:45:40.208Z,1.20
2023-01-06T03:48:15.469Z,0.87
2023-01-06T03:50:50.665Z,1.37
2023-01-06T03:53:26.588Z,1.43
2023-01-06T03:56:01.202Z,1.37
2023-01-06T03:58:30.971Z,1.90
2023-01-06T04:01:00.391Z,1.47
2023-01-06T04:03:28.819Z,0.70
2023-01-06T04:05:58.676Z,1.03
2023-01-06T04:08:27.504Z,1.40
2023-01-06T04:10:55.827Z,2.63
2023-01-06T04:13:23.056Z,3.57
2023-01-06T04:15:51.330Z,1.87
2023-01-06T04:18:19.636Z,1.53
2023-01-06T04:20:48.423Z,0.83
2023-01-06T04:23:18.141Z,1.57
2023-01-06T04:25:46.502Z,2.00
2023-01-06T04:28:14.782Z,1.53
2023-01-06T04:30:43.065Z,1.03
2023-01-06T04:33:11.617Z,2.20
2023-01-06T04:35:39.904Z,1.33
2023-01-06T04:38:08.256Z,0.53
2023-01-06T04:40:37.975Z,1.67
2023-01-06T04:43:06.357Z,0.93
2023-01-06T04:45:35.473Z,1.57
2023-01-06T04:48:03.951Z,3.03
2023-01-06T04:50:32.337Z,1.90
2023-01-06T04:53:00.642Z,5.07
2023-01-06T04:55:29.247Z,3.13
2023-01-06T04:57:58.891Z,8.00
2023-01-06T05:00:27.223Z,4.10
2023-01-06T05:02:55.588Z,2.00
2023-01-06T05:05:23.965Z,2.57
2023-01-06T05:07:55.635Z,2.10
2023-01-06T05:10:23.969Z,1.40
2023-01-06T05:12:52.317Z,3.83
2023-01-06T05:15:22.066Z,1.90
2023-01-06T05:17:50.355Z,1.30
2023-01-06T05:20:18.800Z,2.50
2023-01-06T05:22:47.107Z,3.97
2023-01-06T05:25:15.531Z,2.87
2023-01-06T05:27:43.797Z,3.10
2023-01-06T05:30:13.491Z,5.43
2023-01-06T05:32:43.110Z,6.30
2023-01-06T05:35:11.611Z,2.30
2023-01-06T05:37:39.900Z,2.83
2023-01-06T05:40:09.295Z,3.00
2023-01-06T05:42:37.635Z,2.00
2023-01-06T05:45:06.699Z,2.60
2023-01-06T05:47:34.961Z,0.60
2023-01-06T05:50:04.953Z,1.77
2023-01-06T05:52:33.300Z,1.00
2023-01-06T05:55:01.564Z,1.20
2023-01-06T05:57:29.872Z,2.30
2023-01-06T05:59:58.165Z,2.03
2023-01-06T06:02:26.683Z,1.80
2023-01-06T06:04:55.072Z,3.23
2023-01-06T06:07:24.856Z,2.40
2023-01-06T06:09:53.195Z,0.77
2023-01-06T06:12:21.509Z,2.70
2023-01-06T06:14:49.830Z,1.77
2023-01-06T06:17:18.128Z,2.53
2023-01-06T06:19:46.497Z,3.03
2023-01-06T06:22:14.854Z,6.20
2023-01-06T06:24:44.565Z,9.10
2023-01-06T06:27:12.867Z,5.00
2023-01-06T06:29:41.133Z,2.97
2023-01-06T06:32:09.396Z,5.10
2023-01-06T06:34:37.717Z,4.50
2023-01-06T06:37:05.954Z,4.57
2023-01-06T06:39:34.248Z,4.90
2023-01-06T06:42:03.963Z,5.57
2023-01-06T06:44:32.526Z,3.80
2023-01-06T06:47:00.829Z,4.60
2023-01-06T06:49:31.246Z,7.50
2023-01-06T06:51:59.629Z,6.30
2023-01-06T06:54:27.877Z,4.77
2023-01-06T06:56:57.166Z,5.90
2023-01-06T06:59:26.886Z,5.70
2023-01-06T07:01:57.767Z,4.73
2023-01-06T07:04:26.277Z,4.27
2023-01-06T07:06:54.878Z,4.80
2023-01-06T07:09:23.219Z,6.70
2023-01-06T07:11:51.471Z,2.40
2023-01-06T07:14:19.690Z,2.93
2023-01-06T07:16:49.405Z,1.70
2023-01-06T07:19:17.793Z,4.67
2023-01-06T07:21:46.118Z,6.90
2023-01-06T07:24:14.415Z,2.80
2023-01-06T07:26:42.711Z,4.00
2023-01-06T07:29:11.112Z,3.10
2023-01-06T07:31:39.496Z,7.37
2023-01-06T07:34:09.282Z,4.17
2023-01-06T07:36:37.662Z,4.03
2023-01-06T07:39:06.096Z,8.70
2023-01-06T07:41:34.377Z,2.47
2023-01-06T07:44:02.654Z,2.00
2023-01-06T07:46:31.037Z,4.23
2023-01-06T07:48:59.455Z,1.73
2023-01-06T07:51:29.236Z,2.80
2023-01-06T07:53:57.578Z,0.80
2023-01-06T07:56:25.937Z,0.93
2023-01-06T07:58:55.173Z,1.57
2023-01-06T08:01:23.579Z,1.70
2023-01-06T08:03:51.935Z,5.70
2023-01-06T08:06:20.215Z,3.10
2023-01-06T08:08:49.912Z,1.90
2023-01-06T08:11:18.200Z,1.37
2023-01-06T08:13:46.602Z,2.40
2023-01-06T08:16:15.359Z,4.33
2023-01-06T08:18:43.848Z,3.63
2023-01-06T08:21:12.761Z,4.27
2023-01-06T08:23:41.538Z,2.80
2023-01-06T08:26:13.773Z,5.33
2023-01-06T08:28:42.618Z,1.80
2023-01-06T08:31:12.326Z,3.13
2023-01-06T08:33:41.429Z,4.77
2023-01-06T08:36:13.025Z,2.43
2023-01-06T08:38:41.407Z,3.20
2023-01-06T08:41:11.608Z,5.27
2023-01-06T08:43:41.933Z,2.03
2023-01-06T08:46:13.568Z,2.23
2023-01-06T08:48:42.028Z,4.93
2023-01-06T08:51:13.747Z,3.10
2023-01-06T08:53:42.116Z,3.60
2023-01-06T08:56:14.852Z,1.07
2023-01-06T08:58:43.267Z,2.87
2023-01-06T09:01:17.694Z,3.83
2023-01-06T09:03:46.119Z,4.13
2023-01-06T09:06:14.647Z,3.77
2023-01-06T09:08:42.922Z,5.13
2023-01-06T09:11:13.628Z,4.13
2023-01-06T09:13:43.776Z,3.70
2023-01-06T09:16:13.591Z,3.60
2023-01-06T09:18:47.587Z,2.50
2023-01-06T09:21:15.949Z,2.33
2023-01-06T09:23:44.221Z,6.10
2023-01-06T09:26:12.934Z,4.47
2023-01-06T09:28:42.666Z,3.70
2023-01-06T09:31:11.760Z,2.97
2023-01-06T09:33:41.621Z,5.13
2023-01-06T09:36:10.109Z,4.10
2023-01-06T09:38:38.478Z,3.40
2023-01-06T09:41:23.974Z,6.13
2023-01-06T09:43:58.556Z,3.00
2023-01-06T09:46:32.060Z,3.77
2023-01-06T09:49:08.455Z,6.93
2023-01-06T09:51:38.018Z,6.17
2023-01-06T09:54:16.626Z,3.30
2023-01-06T09:56:48.466Z,7.67
2023-01-06T09:59:25.119Z,4.87
2023-01-06T10:01:55.337Z,3.60
2023-01-06T10:04:27.770Z,8.00
2023-01-06T10:07:07.218Z,5.77
2023-01-06T10:09:44.579Z,12.33
2023-01-06T10:12:24.527Z,7.20
2023-01-06T10:15:04.934Z,12.27
2023-01-06T10:17:54.904Z,6.20
2023-01-06T10:20:39.775Z,7.50
2023-01-06T10:23:25.339Z,5.43
2023-01-06T10:25:56.473Z,5.53
2023-01-06T10:28:30.562Z,4.13
2023-01-06T10:31:05.894Z,2.10
2023-01-06T10:33:38.795Z,5.13
2023-01-06T10:36:13.179Z,4.57
2023-01-06T10:38:45.152Z,4.57
2023-01-06T10:41:21.408Z,3.70
2023-01-06T10:43:49.780Z,3.30
2023-01-06T10:46:19.797Z,2.63
2023-01-06T10:48:50.601Z,4.67
2023-01-06T10:51:34.883Z,2.70
2023-01-06T10:54:07.934Z,4.23
2023-01-06T10:56:38.181Z,1.20
2023-01-06T10:59:11.663Z,1.30
2023-01-06T11:01:51.852Z,1.97
2023-01-06T11:04:21.671Z,0.90
2023-01-06T11:06:52.504Z,0.60
2023-01-06T11:09:28.323Z,1.40
2023-01-06T11:11:58.766Z,0.80
2023-01-06T11:14:31.067Z,0.70
2023-01-06T11:17:03.807Z,0.30
2023-01-06T11:19:38.334Z,0.30
2023-01-06T11:22:07.810Z,0.20
2023-01-06T11:24:51.468Z,0.30
2023-01-06T11:27:19.696Z,0.20
2023-01-06T11:29:49.555Z,0.53
2023-01-06T11:32:22.870Z,0.30
2023-01-06T11:34:55.663Z,0.40
2023-01-06T11:37:35.035Z,0.60
2023-01-06T11:40:11.438Z,0.30
2023-01-06T11:45:32.135Z,0.90
2023-01-06T11:48:02.090Z,0.37
2023-01-06T11:50:30.596Z,0.30
2023-01-06T11:53:03.860Z,0.40
2023-01-06T11:55:32.176Z,0.20
2023-01-06T11:58:05.502Z,0.30
2023-01-06T12:00:43.525Z,0.20
2023-01-06T12:03:23.185Z,0.40
2023-01-06T12:05:58.019Z,0.20
2023-01-06T12:08:31.876Z,0.40
2023-01-06T12:13:44.264Z,0.77
2023-01-06T12:16:23.687Z,0.50
2023-01-06T12:18:54.251Z,0.50
2023-01-06T12:21:29.050Z,0.40
2023-01-06T12:24:00.415Z,0.30
2023-01-06T12:26:29.509Z,0.40
2023-01-06T12:29:00.165Z,0.40
2023-01-06T12:31:36.587Z,0.30
2023-01-06T12:34:12.185Z,0.30
2023-01-06T12:36:46.513Z,0.30
2023-01-06T12:39:21.968Z,0.40
2023-01-06T12:41:54.765Z,0.30
2023-01-06T12:44:40.183Z,0.30
2023-01-06T12:47:16.553Z,0.43
2023-01-06T12:49:51.971Z,0.30
2023-01-06T12:52:26.431Z,0.30
2023-01-06T12:54:57.610Z,0.30
2023-01-06T12:57:39.605Z,0.20
2023-01-06T13:00:43.313Z,0.40
2023-01-06T13:03:50.094Z,0.20
2023-01-06T13:06:33.180Z,0.37
2023-01-06T13:09:14.922Z,0.30
2023-01-06T13:12:06.322Z,0.30
2023-01-06T13:14:42.664Z,0.30
2023-01-06T13:17:19.491Z,1.50
2023-01-06T13:19:52.654Z,1.87
2023-01-06T13:22:34.276Z,0.40
2023-01-06T13:25:28.198Z,1.27
2023-01-06T13:28:08.632Z,1.43
2023-01-06T13:31:10.073Z,1.27
2023-01-06T13:33:58.098Z,0.60
2023-01-06T13:36:44.251Z,0.30
2023-01-06T13:39:17.996Z,0.67
2023-01-06T13:41:50.497Z,0.30
2023-01-06T13:44:22.402Z,0.20
2023-01-06T13:46:53.934Z,0.67
2023-01-06T13:49:23.200Z,0.80
2023-01-06T13:51:52.094Z,0.53
2023-01-06T13:54:57.119Z,0.30
2023-01-06T13:57:31.872Z,0.30
2023-01-06T14:00:24.987Z,0.60
2023-01-06T14:05:56.474Z,0.40
2023-01-06T14:08:28.085Z,0.40
2023-01-06T14:11:03.233Z,0.40
2023-01-06T14:13:36.474Z,0.50
2023-01-06T14:16:10.494Z,0.30
2023-01-06T14:18:42.501Z,0.63
2023-01-06T14:21:27.724Z,0.87
2023-01-06T14:24:00.556Z,0.50
2023-01-06T14:26:54.811Z,1.27
2023-01-06T14:30:00.313Z,0.70
2023-01-06T14:33:14.457Z,0.53
2023-01-06T14:35:48.453Z,0.90
2023-01-06T14:38:25.495Z,0.30
2023-01-06T14:40:59.055Z,0.40
2023-01-06T14:43:42.128Z,0.63
2023-01-06T14:46:18.786Z,0.30
2023-01-06T14:48:53.278Z,0.70
2023-01-06T14:51:23.826Z,0.50
2023-01-06T14:54:00.216Z,0.30
2023-01-06T14:56:34.570Z,0.50
2023-01-06T14:59:10.882Z,0.30
2023-01-06T15:01:40.629Z,0.40
2023-01-06T15:04:23.235Z,0.73
2023-01-06T15:07:02.268Z,0.73
2023-01-06T15:09:30.809Z,0.40
2023-01-06T15:11:59.190Z,1.23
2023-01-06T15:14:29.703Z,0.50
2023-01-06T15:17:00.501Z,0.60
2023-01-06T15:19:29.263Z,0.30
2023-01-06T15:21:58.627Z,0.80
2023-01-06T15:24:32.362Z,0.50
2023-01-06T15:27:06.465Z,0.30
2023-01-06T15:29:35.314Z,0.30
2023-01-06T15:32:05.753Z,0.70
2023-01-06T15:34:37.196Z,0.90
2023-01-06T15:37:08.847Z,0.27
2023-01-06T15:39:40.980Z,0.50
2023-01-06T15:42:10.709Z,0.47
2023-01-06T15:44:40.349Z,0.40
2023-01-06T15:47:20.200Z,1.50
2023-01-06T15:49:53.593Z,0.40
2023-01-06T15:52:27.230Z,0.40
2023-01-06T15:54:59.828Z,2.97
2023-01-06T15:57:32.038Z,2.70
2023-01-06T16:00:02.940Z,1.27
2023-01-06T16:02:33.400Z,1.70
2023-01-06T16:05:02.608Z,2.50
2023-01-06T16:07:43.327Z,1.90
2023-01-06T16:10:32.389Z,1.47
2023-01-06T16:13:18.321Z,0.97
2023-01-06T16:15:48.189Z,0.77
2023-01-06T16:18:19.050Z,5.50
2023-01-06T16:20:47.389Z,2.00
2023-01-06T16:23:33.903Z,1.73
2023-01-06T16:26:13.890Z,2.63
2023-01-06T16:28:45.918Z,2.50
2023-01-06T16:31:16.525Z,2.43
2023-01-06T16:33:47.063Z,3.00
2023-01-06T16:36:17.259Z,2.03
2023-01-06T16:38:45.904Z,1.80
2023-01-06T16:41:18.644Z,1.80
2023-01-06T16:43:47.281Z,3.80
2023-01-06T16:46:21.978Z,6.30
2023-01-06T16:48:53.323Z,2.37
2023-01-06T16:51:22.813Z,7.93
2023-01-06T16:53:51.058Z,4.20
2023-01-06T16:56:23.519Z,2.23
2023-01-06T16:58:51.897Z,0.90
2023-01-06T17:01:22.501Z,2.47
2023-01-06T17:03:54.558Z,3.37
2023-01-06T17:06:24.457Z,6.83
2023-01-06T17:08:56.157Z,5.20
2023-01-06T17:11:29.535Z,4.07
2023-01-06T17:14:00.887Z,3.80
2023-01-06T17:16:34.329Z,7.67
2023-01-06T17:19:04.311Z,3.93
2023-01-06T17:21:36.791Z,3.37
2023-01-06T17:24:12.314Z,5.13
2023-01-06T17:26:43.693Z,1.73
2023-01-06T17:29:14.894Z,3.07
2023-01-06T17:31:46.914Z,4.50
2023-01-06T17:34:18.908Z,1.73
2023-01-06T17:36:48.827Z,1.97
2023-01-06T17:39:22.637Z,2.00
2023-01-06T17:41:59.868Z,1.07
2023-01-06T17:44:36.818Z,2.00
2023-01-06T17:47:13.282Z,3.73
2023-01-06T17:49:41.560Z,4.57
2023-01-06T17:52:17.705Z,5.73
2023-01-06T17:55:11.222Z,5.00
2023-01-06T17:57:46.981Z,4.50
2023-01-06T18:00:23.572Z,2.43
2023-01-06T18:02:56.597Z,4.87
2023-01-06T18:06:22.044Z,3.97
2023-01-06T18:08:54.740Z,2.63
2023-01-06T18:11:33.037Z,2.80
2023-01-06T18:14:18.588Z,2.17
2023-01-06T18:16:48.354Z,3.50
2023-01-06T18:19:28.515Z,2.10
2023-01-06T18:21:57.009Z,3.03
2023-01-06T18:24:30.872Z,3.07
2023-01-06T18:27:00.620Z,3.33
2023-01-06T18:29:36.895Z,2.07
2023-01-06T18:32:33.623Z,1.70
2023-01-06T18:35:03.471Z,2.30
2023-01-06T18:37:34.626Z,2.23
2023-01-06T18:40:04.726Z,8.00
2023-01-06T18:42:36.233Z,3.67
2023-01-06T18:45:19.317Z,3.83
2023-01-06T18:47:52.267Z,3.93
2023-01-06T18:50:33.249Z,3.13
2023-01-06T18:53:05.740Z,3.50
2023-01-06T18:55:39.715Z,3.00
2023-01-06T18:58:26.825Z,2.10
2023-01-06T19:00:58.780Z,1.83
2023-01-06T19:03:38.764Z,2.00
2023-01-06T19:06:34.364Z,1.07
2023-01-06T19:09:10.305Z,1.60
2023-01-06T19:11:38.700Z,0.93
2023-01-06T19:14:14.669Z,3.03
2023-01-06T19:16:50.674Z,2.13
2023-01-06T19:19:29.196Z,1.60
2023-01-06T19:22:07.978Z,1.40
2023-01-06T19:24:46.455Z,2.00
2023-01-06T19:27:39.239Z,3.10
2023-01-06T19:30:42.556Z,2.30
2023-01-06T19:33:38.226Z,0.50
2023-01-06T19:36:42.671Z,1.17
2023-01-06T19:39:33.984Z,0.73
2023-01-06T19:42:17.825Z,1.93
2023-01-06T19:44:48.303Z,0.80
2023-01-06T19:47:20.928Z,1.50
2023-01-06T19:49:53.371Z,0.30
2023-01-06T19:52:30.503Z,0.87
2023-01-06T19:55:12.980Z,0.47
2023-01-06T19:57:44.844Z,1.17
2023-01-06T20:00:25.394Z,1.60
2023-01-06T20:02:57.670Z,0.30
2023-01-06T20:05:29.035Z,0.40
2023-01-06T20:07:57.393Z,0.30
2023-01-06T20:10:25.729Z,0.50
2023-01-06T20:12:54.061Z,0.57
2023-01-06T20:15:22.321Z,0.23
2023-01-06T20:17:50.686Z,0.70
2023-01-06T20:20:19.093Z,0.40
2023-01-06T20:22:48.866Z,0.60
2023-01-06T20:25:17.563Z,0.90
2023-01-06T20:27:45.852Z,0.30
2023-01-06T20:30:14.290Z,0.40
2023-01-06T20:32:42.936Z,0.40
2023-01-06T20:35:12.580Z,0.20
2023-01-06T20:37:40.906Z,1.27
2023-01-06T20:40:11.715Z,0.63
2023-01-06T20:42:40.047Z,1.13
2023-01-06T20:45:09.214Z,1.03
2023-01-06T20:47:37.558Z,0.50
2023-01-06T20:50:07.660Z,0.60
2023-01-06T20:52:36.381Z,1.17
2023-01-06T20:55:04.856Z,1.70
2023-01-06T20:57:34.644Z,0.60
2023-01-06T21:00:02.949Z,0.50
2023-01-06T21:02:31.299Z,0.30
2023-01-06T21:04:59.633Z,0.90
2023-01-06T21:07:27.903Z,0.43
2023-01-06T21:09:56.221Z,0.83
2023-01-06T21:12:24.858Z,0.40
2023-01-06T21:14:54.537Z,1.03
2023-01-06T21:17:23.010Z,0.93
2023-01-06T21:19:51.353Z,0.30
2023-01-06T21:22:19.618Z,1.20
2023-01-06T21:24:47.960Z,0.60
2023-01-06T21:27:16.245Z,0.57
2023-01-06T21:29:44.647Z,1.00
2023-01-06T21:32:14.419Z,0.20
2023-01-06T21:34:42.771Z,0.40
2023-01-06T21:37:11.088Z,0.20
2023-01-06T21:39:39.413Z,0.47
2023-01-06T21:42:25.074Z,0.77
2023-01-06T21:44:53.338Z,0.40
2023-01-06T21:47:23.066Z,0.30
2023-01-06T21:49:51.470Z,0.30
2023-01-06T21:52:19.876Z,0.30
2023-01-06T21:54:48.229Z,0.30
2023-01-06T21:57:16.640Z,0.80
2023-01-06T21:59:45.420Z,0.50
2023-01-06T22:02:15.920Z,0.93
2023-01-06T22:04:45.694Z,0.40
2023-01-06T22:07:15.185Z,0.70
2023-01-06T22:09:45.830Z,2.00
2023-01-06T22:12:17.085Z,1.13
2023-01-06T22:14:45.816Z,1.27
2023-01-06T22:17:14.573Z,0.20
2023-01-06T22:19:46.335Z,0.60
2023-01-06T22:22:15.330Z,0.30
2023-01-06T22:24:43.655Z,0.30
2023-01-06T22:27:11.865Z,2.50
2023-01-06T22:29:40.209Z,0.50
2023-01-06T22:32:08.494Z,0.40
2023-01-06T22:34:37.426Z,0.97
2023-01-06T22:37:07.199Z,1.90
2023-01-06T22:39:35.442Z,2.97
2023-01-06T22:42:13.001Z,2.47
2023-01-06T22:44:41.341Z,0.30
2023-01-06T22:47:09.604Z,0.87
2023-01-06T22:49:37.878Z,0.50
2023-01-06T22:52:07.705Z,0.60
2023-01-06T22:54:35.959Z,0.70
2023-01-06T22:57:04.224Z,0.70
2023-01-06T22:59:32.577Z,0.57
2023-01-06T23:02:01.084Z,0.60
2023-01-06T23:04:29.421Z,1.50
2023-01-06T23:06:57.748Z,0.57
2023-01-06T23:09:27.606Z,1.07
2023-01-06T23:11:55.991Z,0.63
2023-01-06T23:14:24.340Z,0.73
2023-01-06T23:16:52.537Z,0.47
2023-01-06T23:19:20.859Z,0.80
2023-01-06T23:21:49.158Z,0.60
2023-01-06T23:24:17.433Z,0.50
2023-01-06T23:26:48.695Z,0.30
2023-01-06T23:29:17.025Z,0.60
2023-01-06T23:31:46.842Z,0.40
2023-01-06T23:34:18.083Z,1.00
2023-01-06T23:36:46.943Z,0.30
2023-01-06T23:39:17.024Z,0.40
2023-01-06T23:41:46.762Z,0.50
2023-01-06T23:44:16.784Z,1.20
2023-01-06T23:46:46.019Z,1.00
2023-01-06T23:49:15.951Z,0.53
2023-01-06T23:51:44.884Z,0.80
2023-01-06T23:54:15.300Z,0.40
2023-01-06T23:56:43.618Z,0.67
2023-01-06T23:59:13.843Z,1.03
